»·PEaware :: N196EC KSNA-L52

N196EC :: KSNA-L52

FLIGHT INFORMATION

Flight Status: Arrived
Operator: Privately registered:
United States
More flights under this callsign
Pilot: Adrián R. (20842)
Aircraft: AERMACCHI WARRIOR
(F260)
More flights by this aircraft type
Origin: KSNA John Wayne-Orange Co
United States
Destination: L52 Oceano Co
United States
More flights between these airports :: More routes between these airports
Route: ANAHM1 VTU V25 RZS V12 GVO ORCUT
File this flight plan on PilotEdge
Remarks:
Altitude:
(Current/Filed)
10,000ft
Speed:
(Current/Filed)
150kts
Departed: 07-Dec-18 10:49 AM
Arrived: 07-Dec-18 12:00 PM
Distance/Time
Traveled:
161nm/1:11
Distance/Time
To Go:
Arrived

Flight Plot

Page will automatically refresh every two minutes.

Flight plan parsing failed; only flown route is shown


Map Options




Map Legend


Flown Route
Filed Route
Departure Airport
Arrival Airport
Navaid (VOR, NDB)
Fix

Horizontal Profiles

Position Reports

Time Latitude Longitude Heading Altitude Ground
Speed
07-Dec-18 10:24 33.670677 -117.868128 0 59ft 0kts
07-Dec-18 10:25 33.670677 -117.868128 0 59ft 0kts
07-Dec-18 10:26 33.670677 -117.868128 0 59ft 0kts
07-Dec-18 10:27 33.670677 -117.868128 0 59ft 0kts
07-Dec-18 10:28 33.670677 -117.868128 0 59ft 0kts
07-Dec-18 10:29 33.670677 -117.868128 0 59ft 0kts
07-Dec-18 10:30 33.670677 -117.868128 0 59ft 0kts
07-Dec-18 10:31 33.670677 -117.868128 0 59ft 0kts
07-Dec-18 10:32 33.670677 -117.868128 0 59ft 0kts
07-Dec-18 10:33 33.670677 -117.868128 0 59ft 0kts
07-Dec-18 10:34 33.670677 -117.868128 0 59ft 0kts
07-Dec-18 10:35 33.670677 -117.868128 0 59ft 0kts
07-Dec-18 10:36 33.670677 -117.868128 0 59ft 0kts
07-Dec-18 10:38 33.670677 -117.868128 0 59ft 0kts
07-Dec-18 10:39 33.670873 -117.868239 322 59ft 6kts
07-Dec-18 10:40 33.673333 -117.867904 2 59ft 0kts
07-Dec-18 10:41 33.673333 -117.867904 2 59ft 0kts
07-Dec-18 10:42 33.673333 -117.867904 2 59ft 0kts
07-Dec-18 10:43 33.673333 -117.867904 2 59ft 0kts
07-Dec-18 10:44 33.673832 -117.867262 37 59ft 8kts
07-Dec-18 10:45 33.677033 -117.865218 27 59ft 15kts
07-Dec-18 10:46 33.679963 -117.863606 295 59ft 0kts
07-Dec-18 10:47 33.679963 -117.863606 295 59ft 0kts
07-Dec-18 10:48 33.680136 -117.864163 205 59ft 0kts
07-Dec-18 10:49 33.660829 -117.879714 229 835ft 110kts
07-Dec-18 10:50 33.639690 -117.911494 232 2069ft 131kts
07-Dec-18 10:51 33.621689 -117.947717 283 3311ft 125kts
07-Dec-18 10:52 33.633065 -117.988325 291 4007ft 145kts
07-Dec-18 10:53 33.646917 -118.035607 291 4000ft 153kts
07-Dec-18 10:54 33.659914 -118.081092 290 4819ft 135kts
07-Dec-18 10:55 33.675818 -118.118403 318 5860ft 124kts
07-Dec-18 10:56 33.704132 -118.151118 317 5981ft 150kts
07-Dec-18 10:57 33.733905 -118.186972 316 5981ft 152kts
07-Dec-18 10:58 33.763234 -118.222821 316 5981ft 152kts
07-Dec-18 10:59 33.792637 -118.258922 315 5980ft 151kts
07-Dec-18 11:00 33.821984 -118.295011 316 5978ft 151kts
07-Dec-18 11:01 33.851397 -118.331223 316 5976ft 151kts
07-Dec-18 11:01 33.875847 -118.361344 316 5975ft 151kts
07-Dec-18 11:02 33.905175 -118.397500 316 5973ft 152kts
07-Dec-18 11:03 33.934416 -118.434338 311 5971ft 152kts
07-Dec-18 11:05 33.951828 -118.490239 292 5971ft 153kts
07-Dec-18 11:06 33.967282 -118.538008 292 5972ft 153kts
07-Dec-18 11:06 33.980078 -118.577773 292 5972ft 153kts
07-Dec-18 11:07 33.995406 -118.625400 292 5976ft 152kts
07-Dec-18 11:08 34.010145 -118.671908 292 5980ft 152kts
07-Dec-18 11:09 34.025347 -118.719705 293 5986ft 152kts
07-Dec-18 11:10 34.040575 -118.767431 292 5994ft 152kts
07-Dec-18 11:11 34.051936 -118.816900 289 6001ft 153kts
07-Dec-18 11:12 34.064340 -118.865103 291 6004ft 154kts
07-Dec-18 11:13 34.077721 -118.914308 292 6006ft 154kts
07-Dec-18 11:14 34.091161 -118.963258 293 6007ft 154kts
07-Dec-18 11:15 34.104181 -119.010864 292 6010ft 155kts
07-Dec-18 11:16 34.115555 -119.054637 296 6096ft 150kts
07-Dec-18 11:17 34.137129 -119.095864 312 6771ft 140kts
07-Dec-18 11:18 34.159617 -119.130918 312 7654ft 127kts
07-Dec-18 11:19 34.180903 -119.167055 310 8093ft 139kts
07-Dec-18 11:20 34.201394 -119.203167 310 8719ft 127kts
07-Dec-18 11:21 34.221436 -119.238743 310 9335ft 130kts
07-Dec-18 11:22 34.241993 -119.275336 310 9945ft 133kts
07-Dec-18 11:23 34.264513 -119.315132 310 9989ft 145kts
07-Dec-18 11:24 34.286263 -119.353807 310 9990ft 135kts
07-Dec-18 11:25 34.308137 -119.392876 309 9993ft 145kts
07-Dec-18 11:26 34.330718 -119.434571 302 9992ft 151kts
07-Dec-18 11:27 34.351204 -119.477777 307 9991ft 150kts
07-Dec-18 11:28 34.373871 -119.520529 308 9991ft 150kts
07-Dec-18 11:29 34.396763 -119.562790 308 9991ft 150kts
07-Dec-18 11:30 34.419639 -119.605007 308 9990ft 149kts
07-Dec-18 11:31 34.442411 -119.646929 308 9991ft 148kts
07-Dec-18 11:32 34.464425 -119.688079 308 9990ft 148kts
07-Dec-18 11:33 34.486976 -119.729851 307 9990ft 148kts
07-Dec-18 11:34 34.499065 -119.777295 280 9991ft 155kts
07-Dec-18 11:35 34.503539 -119.829304 282 9995ft 154kts
07-Dec-18 11:36 34.508857 -119.880703 283 9999ft 154kts
07-Dec-18 11:37 34.514309 -119.931758 283 9997ft 145kts
07-Dec-18 11:38 34.519552 -119.981058 283 10009ft 149kts
07-Dec-18 11:39 34.524911 -120.031458 283 10012ft 151kts
07-Dec-18 11:40 34.529943 -120.082222 282 10014ft 152kts
07-Dec-18 11:41 34.551229 -120.118837 335 10017ft 138kts
07-Dec-18 11:42 34.585351 -120.140396 327 10019ft 140kts
07-Dec-18 11:43 34.617132 -120.168969 327 9831ft 151kts
07-Dec-18 11:44 34.653282 -120.201646 326 9058ft 169kts
07-Dec-18 11:45 34.691226 -120.236103 326 8258ft 171kts
07-Dec-18 11:46 34.729068 -120.270485 325 7455ft 169kts
07-Dec-18 11:47 34.766254 -120.304342 325 6662ft 170kts
07-Dec-18 11:48 34.803852 -120.338608 325 5858ft 168kts
07-Dec-18 11:49 34.843555 -120.367869 339 5053ft 167kts
07-Dec-18 11:50 34.886132 -120.388481 339 4494ft 155kts
07-Dec-18 11:51 34.923937 -120.406671 339 4497ft 140kts
07-Dec-18 11:52 34.960154 -120.424377 340 4299ft 150kts
07-Dec-18 11:53 34.999550 -120.443321 327 3734ft 156kts
07-Dec-18 11:54 35.035047 -120.475687 318 2787ft 160kts
07-Dec-18 11:55 35.055722 -120.522847 290 1787ft 157kts
07-Dec-18 11:56 35.070870 -120.565236 300 1091ft 112kts
07-Dec-18 11:57 35.085560 -120.593451 306 520ft 97kts
07-Dec-18 11:58 35.099023 -120.617715 304 62ft 75kts
07-Dec-18 11:59 35.103572 -120.625193 59 17ft 0kts
07-Dec-18 12:00 35.103485 -120.624602 185 17ft 1kts
07-Dec-18 12:01 35.103365 -120.624686 210 17ft 0kts

Navigation Log

Ident Type
Flight plan parsing failed, navigation log unavailable